sensor_id;sensor_type;location;lat;lon;timestamp;pressure;altitude;pressure_sealevel;temperature;humidity
67818;BME280;54614;47.576;7.524;2022-08-25T00:01:57;98427.41;;;26.56;46.51
67818;BME280;54614;47.576;7.524;2022-08-25T00:04:25;98422.50;;;26.64;46.45
67818;BME280;54614;47.576;7.524;2022-08-25T00:06:52;98427.81;;;26.71;46.15
67818;BME280;54614;47.576;7.524;2022-08-25T00:09:25;98431.41;;;26.35;46.88
67818;BME280;54614;47.576;7.524;2022-08-25T00:11:52;98430.63;;;26.46;46.86
67818;BME280;54614;47.576;7.524;2022-08-25T00:14:26;98434.75;;;26.79;46.02
67818;BME280;54614;47.576;7.524;2022-08-25T00:16:53;98429.28;;;26.55;46.63
67818;BME280;54614;47.576;7.524;2022-08-25T00:19:26;98432.50;;;26.46;46.92
67818;BME280;54614;47.576;7.524;2022-08-25T00:21:52;98430.88;;;26.45;46.99
67818;BME280;54614;47.576;7.524;2022-08-25T00:24:20;98431.47;;;26.47;46.89
67818;BME280;54614;47.576;7.524;2022-08-25T00:26:51;98429.34;;;26.49;46.70
67818;BME280;54614;47.576;7.524;2022-08-25T00:29:20;98446.09;;;26.39;46.82
67818;BME280;54614;47.576;7.524;2022-08-25T00:31:47;98448.47;;;26.77;46.19
67818;BME280;54614;47.576;7.524;2022-08-25T00:34:19;98448.59;;;26.82;45.93
67818;BME280;54614;47.576;7.524;2022-08-25T00:36:46;98449.88;;;26.98;45.68
67818;BME280;54614;47.576;7.524;2022-08-25T00:39:12;98452.63;;;26.91;45.88
67818;BME280;54614;47.576;7.524;2022-08-25T00:41:42;98434.44;;;27.28;45.04
67818;BME280;54614;47.576;7.524;2022-08-25T00:44:11;98440.41;;;26.89;45.66
67818;BME280;54614;47.576;7.524;2022-08-25T00:46:49;98440.13;;;26.97;45.70
67818;BME280;54614;47.576;7.524;2022-08-25T00:52:08;98432.56;;;26.57;46.58
67818;BME280;54614;47.576;7.524;2022-08-25T00:54:48;98427.97;;;26.88;45.80
67818;BME280;54614;47.576;7.524;2022-08-25T00:57:21;98437.34;;;26.85;45.88
67818;BME280;54614;47.576;7.524;2022-08-25T00:59:49;98437.13;;;27.28;44.87
67818;BME280;54614;47.576;7.524;2022-08-25T01:02:16;98445.91;;;27.12;45.32
67818;BME280;54614;47.576;7.524;2022-08-25T01:04:43;98450.94;;;27.09;45.30
67818;BME280;54614;47.576;7.524;2022-08-25T01:07:11;98452.22;;;27.06;45.39
67818;BME280;54614;47.576;7.524;2022-08-25T01:09:37;98450.59;;;26.75;46.20
67818;BME280;54614;47.576;7.524;2022-08-25T01:12:04;98447.69;;;26.88;46.00
67818;BME280;54614;47.576;7.524;2022-08-25T01:14:33;98429.59;;;27.19;45.15
67818;BME280;54614;47.576;7.524;2022-08-25T01:16:59;98425.50;;;27.16;45.31
67818;BME280;54614;47.576;7.524;2022-08-25T01:19:27;98426.22;;;27.47;44.58
67818;BME280;54614;47.576;7.524;2022-08-25T01:21:55;98432.03;;;26.97;45.65
67818;BME280;54614;47.576;7.524;2022-08-25T01:24:33;98437.00;;;27.23;45.18
67818;BME280;54614;47.576;7.524;2022-08-25T01:27:00;98433.97;;;27.55;44.34
67818;BME280;54614;47.576;7.524;2022-08-25T01:29:27;98432.69;;;27.46;44.54
67818;BME280;54614;47.576;7.524;2022-08-25T01:32:01;98429.56;;;27.60;44.23
67818;BME280;54614;47.576;7.524;2022-08-25T01:34:31;98433.50;;;27.35;44.78
67818;BME280;54614;47.576;7.524;2022-08-25T01:36:59;98431.72;;;27.17;45.12
67818;BME280;54614;47.576;7.524;2022-08-25T01:39:27;98436.91;;;27.30;45.00
67818;BME280;54614;47.576;7.524;2022-08-25T01:42:07;98436.22;;;27.58;44.36
67818;BME280;54614;47.576;7.524;2022-08-25T01:44:37;98439.50;;;27.48;44.70
67818;BME280;54614;47.576;7.524;2022-08-25T01:47:05;98447.50;;;27.55;44.14
67818;BME280;54614;47.576;7.524;2022-08-25T01:49:31;98450.19;;;27.55;44.33
67818;BME280;54614;47.576;7.524;2022-08-25T01:54:37;98448.19;;;27.50;44.44
67818;BME280;54614;47.576;7.524;2022-08-25T01:57:04;98457.16;;;27.63;44.14
67818;BME280;54614;47.576;7.524;2022-08-25T01:59:30;98455.63;;;27.67;44.11
67818;BME280;54614;47.576;7.524;2022-08-25T02:01:55;98459.47;;;27.59;43.96
67818;BME280;54614;47.576;7.524;2022-08-25T02:04:21;98462.22;;;27.71;43.79
67818;BME280;54614;47.576;7.524;2022-08-25T02:06:47;98462.69;;;27.68;43.94
67818;BME280;54614;47.576;7.524;2022-08-25T02:09:16;98461.03;;;27.67;44.00
67818;BME280;54614;47.576;7.524;2022-08-25T02:11:45;98466.91;;;27.64;44.10
67818;BME280;54614;47.576;7.524;2022-08-25T02:14:13;98462.41;;;27.57;44.36
67818;BME280;54614;47.576;7.524;2022-08-25T02:16:43;98462.19;;;27.59;44.24
67818;BME280;54614;47.576;7.524;2022-08-25T02:19:10;98453.50;;;27.69;43.82
67818;BME280;54614;47.576;7.524;2022-08-25T02:21:37;98455.97;;;27.70;43.89
67818;BME280;54614;47.576;7.524;2022-08-25T02:24:04;98452.69;;;27.68;44.02
67818;BME280;54614;47.576;7.524;2022-08-25T02:26:31;98451.59;;;27.57;44.25
67818;BME280;54614;47.576;7.524;2022-08-25T02:28:57;98444.09;;;27.59;44.21
67818;BME280;54614;47.576;7.524;2022-08-25T02:31:24;98435.16;;;27.59;44.21
67818;BME280;54614;47.576;7.524;2022-08-25T02:33:51;98435.38;;;27.57;44.12
67818;BME280;54614;47.576;7.524;2022-08-25T02:36:18;98431.44;;;27.60;44.43
67818;BME280;54614;47.576;7.524;2022-08-25T02:38:45;98438.09;;;27.57;44.30
67818;BME280;54614;47.576;7.524;2022-08-25T02:41:17;98439.97;;;27.57;44.15
67818;BME280;54614;47.576;7.524;2022-08-25T02:43:46;98450.78;;;27.57;44.25
67818;BME280;54614;47.576;7.524;2022-08-25T02:46:16;98452.44;;;27.58;44.27
67818;BME280;54614;47.576;7.524;2022-08-25T02:48:43;98443.72;;;27.56;44.07
67818;BME280;54614;47.576;7.524;2022-08-25T02:51:10;98445.03;;;27.53;44.56
67818;BME280;54614;47.576;7.524;2022-08-25T02:53:38;98446.59;;;27.61;44.00
67818;BME280;54614;47.576;7.524;2022-08-25T02:56:08;98452.56;;;27.63;43.97
67818;BME280;54614;47.576;7.524;2022-08-25T02:58:35;98460.53;;;27.58;44.16
67818;BME280;54614;47.576;7.524;2022-08-25T03:01:02;98457.25;;;27.56;44.04
67818;BME280;54614;47.576;7.524;2022-08-25T03:03:28;98467.22;;;27.55;44.26
67818;BME280;54614;47.576;7.524;2022-08-25T03:05:54;98452.31;;;27.53;44.15
67818;BME280;54614;47.576;7.524;2022-08-25T03:08:21;98459.72;;;27.57;44.43
67818;BME280;54614;47.576;7.524;2022-08-25T03:10:46;98452.31;;;27.53;44.24
67818;BME280;54614;47.576;7.524;2022-08-25T03:13:12;98452.06;;;27.54;44.09
67818;BME280;54614;47.576;7.524;2022-08-25T03:15:39;98442.25;;;27.60;44.13
67818;BME280;54614;47.576;7.524;2022-08-25T03:18:07;98444.78;;;27.55;44.34
67818;BME280;54614;47.576;7.524;2022-08-25T03:20:34;98449.97;;;27.56;44.31
67818;BME280;54614;47.576;7.524;2022-08-25T03:23:02;98445.63;;;27.55;44.04
67818;BME280;54614;47.576;7.524;2022-08-25T03:25:28;98446.19;;;27.57;44.14
67818;BME280;54614;47.576;7.524;2022-08-25T03:28:13;98443.50;;;27.57;44.11
67818;BME280;54614;47.576;7.524;2022-08-25T03:30:40;98444.31;;;27.58;43.91
67818;BME280;54614;47.576;7.524;2022-08-25T03:33:07;98444.06;;;27.48;44.18
67818;BME280;54614;47.576;7.524;2022-08-25T03:35:33;98435.03;;;27.54;43.97
67818;BME280;54614;47.576;7.524;2022-08-25T03:37:59;98439.72;;;27.35;44.55
67818;BME280;54614;47.576;7.524;2022-08-25T03:40:26;98443.50;;;27.57;43.83
67818;BME280;54614;47.576;7.524;2022-08-25T03:42:53;98431.44;;;27.60;43.77
67818;BME280;54614;47.576;7.524;2022-08-25T03:45:20;98432.94;;;27.56;43.78
67818;BME280;54614;47.576;7.524;2022-08-25T03:47:48;98434.81;;;27.55;43.87
67818;BME280;54614;47.576;7.524;2022-08-25T03:50:17;98438.69;;;27.59;43.73
67818;BME280;54614;47.576;7.524;2022-08-25T03:52:49;98443.97;;;27.54;43.90
67818;BME280;54614;47.576;7.524;2022-08-25T03:55:15;98448.91;;;27.57;43.88
67818;BME280;54614;47.576;7.524;2022-08-25T03:57:41;98443.63;;;27.51;44.06
67818;BME280;54614;47.576;7.524;2022-08-25T04:00:09;98431.66;;;27.70;43.64
67818;BME280;54614;47.576;7.524;2022-08-25T04:02:36;98445.19;;;26.75;45.36
67818;BME280;54614;47.576;7.524;2022-08-25T04:05:03;98437.72;;;26.59;45.94
67818;BME280;54614;47.576;7.524;2022-08-25T04:07:29;98447.25;;;26.61;45.59
67818;BME280;54614;47.576;7.524;2022-08-25T04:09:54;98440.97;;;26.49;45.92
67818;BME280;54614;47.576;7.524;2022-08-25T04:12:21;98443.72;;;26.61;45.72
67818;BME280;54614;47.576;7.524;2022-08-25T04:14:47;98441.56;;;26.81;45.23
67818;BME280;54614;47.576;7.524;2022-08-25T04:17:13;98438.31;;;26.61;45.63
67818;BME280;54614;47.576;7.524;2022-08-25T04:19:39;98438.41;;;26.84;45.25
67818;BME280;54614;47.576;7.524;2022-08-25T04:22:05;98434.31;;;26.52;45.77
67818;BME280;54614;47.576;7.524;2022-08-25T04:24:31;98450.25;;;26.17;46.43
67818;BME280;54614;47.576;7.524;2022-08-25T04:26:57;98453.41;;;26.14;46.66
67818;BME280;54614;47.576;7.524;2022-08-25T04:29:25;98443.19;;;25.97;47.32
67818;BME280;54614;47.576;7.524;2022-08-25T04:31:54;98440.97;;;26.13;46.83
67818;BME280;54614;47.576;7.524;2022-08-25T04:34:23;98438.03;;;25.96;47.20
67818;BME280;54614;47.576;7.524;2022-08-25T04:36:49;98440.69;;;26.02;47.23
67818;BME280;54614;47.576;7.524;2022-08-25T04:39:17;98439.66;;;25.97;47.18
67818;BME280;54614;47.576;7.524;2022-08-25T04:41:46;98435.88;;;26.05;46.92
67818;BME280;54614;47.576;7.524;2022-08-25T04:44:12;98439.28;;;25.93;47.10
67818;BME280;54614;47.576;7.524;2022-08-25T04:46:38;98442.44;;;25.90;47.06
67818;BME280;54614;47.576;7.524;2022-08-25T04:49:04;98441.78;;;25.95;46.82
67818;BME280;54614;47.576;7.524;2022-08-25T04:51:37;98428.28;;;25.95;47.23
67818;BME280;54614;47.576;7.524;2022-08-25T04:54:10;98430.88;;;26.08;46.92
67818;BME280;54614;47.576;7.524;2022-08-25T04:56:39;98419.13;;;26.99;44.95
67818;BME280;54614;47.576;7.524;2022-08-25T04:59:12;98411.78;;;27.29;43.89
67818;BME280;54614;47.576;7.524;2022-08-25T05:01:41;98407.78;;;27.32;43.93
67818;BME280;54614;47.576;7.524;2022-08-25T05:04:10;98409.09;;;27.65;43.18
67818;BME280;54614;47.576;7.524;2022-08-25T05:06:36;98414.00;;;27.44;43.85
67818;BME280;54614;47.576;7.524;2022-08-25T05:09:04;98415.44;;;27.70;43.23
67818;BME280;54614;47.576;7.524;2022-08-25T05:11:30;98412.94;;;27.57;43.50
67818;BME280;54614;47.576;7.524;2022-08-25T05:13:57;98414.25;;;27.54;43.35
67818;BME280;54614;47.576;7.524;2022-08-25T05:16:24;98414.47;;;27.53;43.51
67818;BME280;54614;47.576;7.524;2022-08-25T05:18:51;98429.25;;;27.27;43.82
67818;BME280;54614;47.576;7.524;2022-08-25T05:21:22;98432.75;;;27.04;43.75
67818;BME280;54614;47.576;7.524;2022-08-25T05:23:49;98434.91;;;26.95;43.83
67818;BME280;54614;47.576;7.524;2022-08-25T05:26:20;98428.09;;;26.93;43.83
67818;BME280;54614;47.576;7.524;2022-08-25T05:28:51;98420.81;;;26.82;43.80
67818;BME280;54614;47.576;7.524;2022-08-25T05:31:19;98416.59;;;26.86;43.74
67818;BME280;54614;47.576;7.524;2022-08-25T05:33:45;98415.28;;;26.77;43.83
67818;BME280;54614;47.576;7.524;2022-08-25T05:36:13;98410.47;;;26.79;43.87
67818;BME280;54614;47.576;7.524;2022-08-25T05:38:40;98415.03;;;26.78;43.88
67818;BME280;54614;47.576;7.524;2022-08-25T05:41:11;98420.91;;;26.75;43.95
67818;BME280;54614;47.576;7.524;2022-08-25T05:43:43;98408.81;;;26.78;44.07
67818;BME280;54614;47.576;7.524;2022-08-25T05:46:10;98407.66;;;26.85;43.88
67818;BME280;54614;47.576;7.524;2022-08-25T05:48:37;98402.84;;;26.76;44.00
67818;BME280;54614;47.576;7.524;2022-08-25T05:51:11;98402.09;;;26.69;44.48
67818;BME280;54614;47.576;7.524;2022-08-25T05:53:45;98406.69;;;26.68;44.30
67818;BME280;54614;47.576;7.524;2022-08-25T05:56:11;98405.75;;;26.74;44.52
67818;BME280;54614;47.576;7.524;2022-08-25T05:58:40;98411.06;;;26.81;44.22
67818;BME280;54614;47.576;7.524;2022-08-25T06:01:07;98408.31;;;26.69;44.90
67818;BME280;54614;47.576;7.524;2022-08-25T06:03:51;98405.66;;;26.81;44.85
67818;BME280;54614;47.576;7.524;2022-08-25T06:06:23;98402.16;;;26.80;44.90
67818;BME280;54614;47.576;7.524;2022-08-25T06:08:49;98397.53;;;26.69;45.48
67818;BME280;54614;47.576;7.524;2022-08-25T06:11:15;98400.72;;;26.78;45.13
67818;BME280;54614;47.576;7.524;2022-08-25T06:13:41;98398.97;;;26.83;44.99
67818;BME280;54614;47.576;7.524;2022-08-25T06:16:07;98398.66;;;26.91;44.87
67818;BME280;54614;47.576;7.524;2022-08-25T06:18:33;98403.16;;;26.98;45.29
67818;BME280;54614;47.576;7.524;2022-08-25T06:21:11;98400.25;;;27.11;44.52
67818;BME280;54614;47.576;7.524;2022-08-25T06:23:38;98389.81;;;27.14;44.56
67818;BME280;54614;47.576;7.524;2022-08-25T06:26:04;98393.44;;;27.20;44.40
67818;BME280;54614;47.576;7.524;2022-08-25T06:28:30;98395.09;;;27.21;44.20
67818;BME280;54614;47.576;7.524;2022-08-25T06:31:00;98392.03;;;27.17;44.31
67818;BME280;54614;47.576;7.524;2022-08-25T06:33:28;98388.75;;;27.27;44.14
67818;BME280;54614;47.576;7.524;2022-08-25T06:35:55;98385.59;;;27.30;43.97
67818;BME280;54614;47.576;7.524;2022-08-25T06:38:23;98386.19;;;27.32;43.99
67818;BME280;54614;47.576;7.524;2022-08-25T06:40:49;98390.16;;;27.29;44.06
67818;BME280;54614;47.576;7.524;2022-08-25T06:43:20;98389.59;;;27.39;43.88
67818;BME280;54614;47.576;7.524;2022-08-25T06:45:46;98390.53;;;27.33;44.08
67818;BME280;54614;47.576;7.524;2022-08-25T06:48:13;98393.47;;;27.32;43.82
67818;BME280;54614;47.576;7.524;2022-08-25T06:50:40;98388.28;;;27.30;44.26
67818;BME280;54614;47.576;7.524;2022-08-25T06:53:07;98387.69;;;27.40;43.66
67818;BME280;54614;47.576;7.524;2022-08-25T06:55:34;98387.47;;;27.41;43.79
67818;BME280;54614;47.576;7.524;2022-08-25T06:58:01;98390.53;;;27.45;43.50
67818;BME280;54614;47.576;7.524;2022-08-25T07:00:28;98390.41;;;27.51;43.67
67818;BME280;54614;47.576;7.524;2022-08-25T07:02:54;98380.88;;;27.49;43.62
67818;BME280;54614;47.576;7.524;2022-08-25T07:05:20;98385.94;;;27.57;43.52
67818;BME280;54614;47.576;7.524;2022-08-25T07:07:46;98385.59;;;27.53;43.75
67818;BME280;54614;47.576;7.524;2022-08-25T07:10:12;98389.47;;;27.57;43.45
67818;BME280;54614;47.576;7.524;2022-08-25T07:12:39;98384.88;;;27.58;43.50
67818;BME280;54614;47.576;7.524;2022-08-25T07:15:05;98397.34;;;27.59;43.63
67818;BME280;54614;47.576;7.524;2022-08-25T07:17:31;98393.81;;;27.58;43.35
67818;BME280;54614;47.576;7.524;2022-08-25T07:19:57;98392.88;;;27.53;43.35
67818;BME280;54614;47.576;7.524;2022-08-25T07:22:23;98398.38;;;27.58;43.37
67818;BME280;54614;47.576;7.524;2022-08-25T07:24:49;98396.16;;;27.55;43.51
67818;BME280;54614;47.576;7.524;2022-08-25T07:27:15;98392.88;;;27.65;43.33
67818;BME280;54614;47.576;7.524;2022-08-25T07:29:41;98397.47;;;27.64;43.42
67818;BME280;54614;47.576;7.524;2022-08-25T07:32:07;98390.19;;;27.65;43.23
67818;BME280;54614;47.576;7.524;2022-08-25T07:34:33;98383.72;;;27.66;43.28
67818;BME280;54614;47.576;7.524;2022-08-25T07:37:19;98388.88;;;27.55;43.51
67818;BME280;54614;47.576;7.524;2022-08-25T07:39:45;98388.06;;;27.67;43.24
67818;BME280;54614;47.576;7.524;2022-08-25T07:42:12;98386.09;;;27.62;43.50
67818;BME280;54614;47.576;7.524;2022-08-25T07:44:38;98382.09;;;27.65;43.36
67818;BME280;54614;47.576;7.524;2022-08-25T07:47:04;98389.59;;;27.74;43.13
67818;BME280;54614;47.576;7.524;2022-08-25T07:49:30;98387.13;;;27.73;43.22
67818;BME280;54614;47.576;7.524;2022-08-25T07:51:56;98391.00;;;27.65;43.39
67818;BME280;54614;47.576;7.524;2022-08-25T07:54:22;98385.59;;;27.65;43.29
67818;BME280;54614;47.576;7.524;2022-08-25T07:56:48;98392.78;;;27.71;43.36
67818;BME280;54614;47.576;7.524;2022-08-25T07:59:14;98386.31;;;27.72;43.19
67818;BME280;54614;47.576;7.524;2022-08-25T08:01:40;98389.72;;;27.68;43.48
67818;BME280;54614;47.576;7.524;2022-08-25T08:04:07;98398.28;;;27.76;43.42
67818;BME280;54614;47.576;7.524;2022-08-25T08:06:33;98398.66;;;27.68;43.32
67818;BME280;54614;47.576;7.524;2022-08-25T08:08:59;98394.78;;;27.64;43.64
67818;BME280;54614;47.576;7.524;2022-08-25T08:11:32;98390.19;;;27.65;43.50
67818;BME280;54614;47.576;7.524;2022-08-25T08:14:02;98392.63;;;27.54;43.72
67818;BME280;54614;47.576;7.524;2022-08-25T08:16:29;98389.47;;;27.69;43.56
67818;BME280;54614;47.576;7.524;2022-08-25T08:18:57;98388.06;;;27.67;43.58
67818;BME280;54614;47.576;7.524;2022-08-25T08:21:31;98389.38;;;27.64;43.73
67818;BME280;54614;47.576;7.524;2022-08-25T08:23:58;98391.09;;;27.58;43.84
67818;BME280;54614;47.576;7.524;2022-08-25T08:26:26;98396.66;;;27.64;43.85
67818;BME280;54614;47.576;7.524;2022-08-25T08:28:53;98390.66;;;27.62;43.73
67818;BME280;54614;47.576;7.524;2022-08-25T08:31:23;98399.81;;;27.60;43.98
67818;BME280;54614;47.576;7.524;2022-08-25T08:33:53;98396.88;;;27.62;44.28
67818;BME280;54614;47.576;7.524;2022-08-25T08:36:21;98384.78;;;27.65;44.06
67818;BME280;54614;47.576;7.524;2022-08-25T08:38:48;98389.38;;;27.64;44.12
67818;BME280;54614;47.576;7.524;2022-08-25T08:41:39;98390.31;;;27.70;43.95
67818;BME280;54614;47.576;7.524;2022-08-25T08:50:22;98383.63;;;27.60;44.13
67818;BME280;54614;47.576;7.524;2022-08-25T08:55:39;98384.75;;;27.53;44.30
67818;BME280;54614;47.576;7.524;2022-08-25T08:58:19;98378.44;;;27.71;43.98
67818;BME280;54614;47.576;7.524;2022-08-25T09:00:51;98379.25;;;27.71;44.06
67818;BME280;54614;47.576;7.524;2022-08-25T09:03:37;98375.63;;;27.66;44.15
67818;BME280;54614;47.576;7.524;2022-08-25T09:06:40;98386.44;;;27.66;43.90
67818;BME280;54614;47.576;7.524;2022-08-25T09:09:10;98379.63;;;27.63;44.22
67818;BME280;54614;47.576;7.524;2022-08-25T09:11:56;98382.78;;;27.60;44.06
67818;BME280;54614;47.576;7.524;2022-08-25T09:18:09;98382.91;;;27.65;44.09
67818;BME280;54614;47.576;7.524;2022-08-25T09:21:02;98380.78;;;27.55;44.28
67818;BME280;54614;47.576;7.524;2022-08-25T09:29:58;98380.19;;;27.53;44.41
67818;BME280;54614;47.576;7.524;2022-08-25T09:32:34;98375.84;;;27.52;44.27
67818;BME280;54614;47.576;7.524;2022-08-25T09:35:05;98377.13;;;27.50;44.46
67818;BME280;54614;47.576;7.524;2022-08-25T09:37:32;98371.38;;;27.58;44.23
67818;BME280;54614;47.576;7.524;2022-08-25T09:39:57;98367.16;;;27.62;44.32
67818;BME280;54614;47.576;7.524;2022-08-25T09:42:55;98367.84;;;27.57;44.33
67818;BME280;54614;47.576;7.524;2022-08-25T09:45:42;98362.09;;;27.54;44.38
67818;BME280;54614;47.576;7.524;2022-08-25T09:48:33;98366.69;;;27.53;44.60
67818;BME280;54614;47.576;7.524;2022-08-25T09:54:02;98368.56;;;27.53;44.24
67818;BME280;54614;47.576;7.524;2022-08-25T09:56:31;98363.50;;;27.56;43.93
67818;BME280;54614;47.576;7.524;2022-08-25T09:59:31;98362.44;;;27.57;44.27
67818;BME280;54614;47.576;7.524;2022-08-25T10:02:20;98357.03;;;27.57;44.43
67818;BME280;54614;47.576;7.524;2022-08-25T10:04:48;98354.00;;;27.54;44.30
67818;BME280;54614;47.576;7.524;2022-08-25T10:07:27;98347.44;;;27.62;44.23
67818;BME280;54614;47.576;7.524;2022-08-25T10:10:03;98350.81;;;27.57;44.20
67818;BME280;54614;47.576;7.524;2022-08-25T10:12:41;98344.59;;;27.56;44.35
67818;BME280;54614;47.576;7.524;2022-08-25T10:15:23;98348.00;;;27.64;44.34
67818;BME280;54614;47.576;7.524;2022-08-25T10:17:50;98342.47;;;27.58;44.28
67818;BME280;54614;47.576;7.524;2022-08-25T10:20:26;98339.31;;;27.62;43.89
67818;BME280;54614;47.576;7.524;2022-08-25T10:23:13;98335.19;;;27.59;44.28
67818;BME280;54614;47.576;7.524;2022-08-25T10:25:46;98333.91;;;27.62;44.25
67818;BME280;54614;47.576;7.524;2022-08-25T10:31:26;98327.22;;;27.64;44.17
67818;BME280;54614;47.576;7.524;2022-08-25T10:37:31;98323.47;;;27.65;44.15
67818;BME280;54614;47.576;7.524;2022-08-25T10:46:52;98312.66;;;27.65;44.10
67818;BME280;54614;47.576;7.524;2022-08-25T10:49:44;98307.50;;;27.64;44.26
67818;BME280;54614;47.576;7.524;2022-08-25T10:52:27;98313.72;;;27.64;44.07
67818;BME280;54614;47.576;7.524;2022-08-25T10:55:04;98299.97;;;27.66;44.25
67818;BME280;54614;47.576;7.524;2022-08-25T11:00:20;98297.75;;;27.63;44.21
67818;BME280;54614;47.576;7.524;2022-08-25T11:06:00;98305.41;;;27.07;45.35
67818;BME280;54614;47.576;7.524;2022-08-25T11:08:50;98307.94;;;26.90;45.75
67818;BME280;54614;47.576;7.524;2022-08-25T11:11:35;98293.97;;;26.82;45.94
67818;BME280;54614;47.576;7.524;2022-08-25T11:14:11;98294.16;;;26.57;46.51
67818;BME280;54614;47.576;7.524;2022-08-25T11:17:19;98286.91;;;26.69;46.17
67818;BME280;54614;47.576;7.524;2022-08-25T11:19:51;98291.41;;;26.87;45.83
67818;BME280;54614;47.576;7.524;2022-08-25T11:25:39;98275.53;;;27.60;44.30
67818;BME280;54614;47.576;7.524;2022-08-25T11:28:48;98275.66;;;27.66;44.12
67818;BME280;54614;47.576;7.524;2022-08-25T11:31:18;98274.94;;;27.70;44.21
67818;BME280;54614;47.576;7.524;2022-08-25T11:33:49;98269.63;;;27.75;44.05
67818;BME280;54614;47.576;7.524;2022-08-25T11:36:34;98263.97;;;27.77;43.81
67818;BME280;54614;47.576;7.524;2022-08-25T11:42:24;98263.16;;;27.76;43.84
67818;BME280;54614;47.576;7.524;2022-08-25T11:51:46;98260.00;;;27.68;44.25
67818;BME280;54614;47.576;7.524;2022-08-25T11:54:43;98250.47;;;27.77;43.92
67818;BME280;54614;47.576;7.524;2022-08-25T12:02:46;98243.66;;;27.74;43.82
67818;BME280;54614;47.576;7.524;2022-08-25T12:10:59;98240.38;;;27.72;44.06
67818;BME280;54614;47.576;7.524;2022-08-25T12:13:42;98235.69;;;27.68;44.10
67818;BME280;54614;47.576;7.524;2022-08-25T12:25:24;98223.09;;;27.73;44.08
67818;BME280;54614;47.576;7.524;2022-08-25T12:28:31;98226.16;;;27.77;44.08
67818;BME280;54614;47.576;7.524;2022-08-25T12:31:10;98217.56;;;27.80;43.91
67818;BME280;54614;47.576;7.524;2022-08-25T12:37:03;98214.69;;;27.86;43.84
67818;BME280;54614;47.576;7.524;2022-08-25T12:47:53;98211.91;;;27.81;43.93
67818;BME280;54614;47.576;7.524;2022-08-25T12:50:43;98212.38;;;27.78;44.09
67818;BME280;54614;47.576;7.524;2022-08-25T12:56:44;98213.81;;;27.29;44.75
67818;BME280;54614;47.576;7.524;2022-08-25T12:59:35;98210.53;;;26.57;46.08
67818;BME280;54614;47.576;7.524;2022-08-25T13:08:18;98203.72;;;26.43;46.18
67818;BME280;54614;47.576;7.524;2022-08-25T13:11:11;98194.34;;;26.33;46.40
67818;BME280;54614;47.576;7.524;2022-08-25T13:16:59;98196.28;;;26.26;46.73
67818;BME280;54614;47.576;7.524;2022-08-25T13:19:26;98187.16;;;26.27;47.04
67818;BME280;54614;47.576;7.524;2022-08-25T13:21:55;98195.59;;;26.31;46.99
67818;BME280;54614;47.576;7.524;2022-08-25T13:24:32;98185.50;;;26.26;47.09
67818;BME280;54614;47.576;7.524;2022-08-25T13:27:07;98183.75;;;26.20;47.58
67818;BME280;54614;47.576;7.524;2022-08-25T13:29:48;98189.34;;;26.19;47.31
67818;BME280;54614;47.576;7.524;2022-08-25T13:32:25;98182.44;;;26.23;47.32
67818;BME280;54614;47.576;7.524;2022-08-25T13:35:17;98181.41;;;26.24;47.06
67818;BME280;54614;47.576;7.524;2022-08-25T13:37:43;98181.03;;;26.20;47.10
67818;BME280;54614;47.576;7.524;2022-08-25T13:42:51;98176.41;;;27.09;45.44
67818;BME280;54614;47.576;7.524;2022-08-25T13:45:26;98175.78;;;27.59;44.12
67818;BME280;54614;47.576;7.524;2022-08-25T13:47:52;98169.19;;;27.67;44.27
67818;BME280;54614;47.576;7.524;2022-08-25T13:53:13;98169.56;;;27.87;43.62
67818;BME280;54614;47.576;7.524;2022-08-25T13:58:22;98166.16;;;27.91;43.62
67818;BME280;54614;47.576;7.524;2022-08-25T14:01:14;98172.53;;;27.85;43.75
67818;BME280;54614;47.576;7.524;2022-08-25T14:03:45;98161.47;;;27.87;43.86
67818;BME280;54614;47.576;7.524;2022-08-25T14:09:04;98159.59;;;27.87;43.78
67818;BME280;54614;47.576;7.524;2022-08-25T14:11:56;98162.03;;;27.89;43.70
67818;BME280;54614;47.576;7.524;2022-08-25T14:16:51;98155.91;;;27.93;43.59
67818;BME280;54614;47.576;7.524;2022-08-25T14:19:21;98151.47;;;27.87;43.55
67818;BME280;54614;47.576;7.524;2022-08-25T14:21:49;98151.22;;;27.89;43.70
67818;BME280;54614;47.576;7.524;2022-08-25T14:24:21;98159.66;;;27.92;43.69
67818;BME280;54614;47.576;7.524;2022-08-25T14:26:48;98152.53;;;27.86;43.96
67818;BME280;54614;47.576;7.524;2022-08-25T14:29:15;98150.66;;;27.87;43.79
67818;BME280;54614;47.576;7.524;2022-08-25T14:31:44;98144.44;;;27.86;43.78
67818;BME280;54614;47.576;7.524;2022-08-25T14:34:18;98146.88;;;27.88;43.80
67818;BME280;54614;47.576;7.524;2022-08-25T14:36:47;98147.63;;;27.83;43.97
67818;BME280;54614;47.576;7.524;2022-08-25T14:39:15;98143.69;;;27.91;43.83
67818;BME280;54614;47.576;7.524;2022-08-25T14:41:43;98135.00;;;27.89;43.68
67818;BME280;54614;47.576;7.524;2022-08-25T14:44:12;98133.13;;;27.89;43.88
67818;BME280;54614;47.576;7.524;2022-08-25T14:46:44;98135.59;;;27.91;43.91
67818;BME280;54614;47.576;7.524;2022-08-25T14:49:16;98133.94;;;27.90;43.82
67818;BME280;54614;47.576;7.524;2022-08-25T14:51:43;98131.50;;;27.88;43.66
67818;BME280;54614;47.576;7.524;2022-08-25T14:54:12;98134.38;;;27.99;43.65
67818;BME280;54614;47.576;7.524;2022-08-25T14:56:40;98127.88;;;27.83;43.99
67818;BME280;54614;47.576;7.524;2022-08-25T14:59:06;98126.16;;;27.93;43.84
67818;BME280;54614;47.576;7.524;2022-08-25T15:01:32;98122.50;;;28.00;43.66
67818;BME280;54614;47.576;7.524;2022-08-25T15:04:10;98119.63;;;28.06;43.61
67818;BME280;54614;47.576;7.524;2022-08-25T15:06:39;98121.75;;;28.04;43.73
67818;BME280;54614;47.576;7.524;2022-08-25T15:09:12;98123.31;;;28.00;43.60
67818;BME280;54614;47.576;7.524;2022-08-25T15:11:52;98114.28;;;27.95;43.58
67818;BME280;54614;47.576;7.524;2022-08-25T15:14:21;98118.72;;;28.01;43.70
67818;BME280;54614;47.576;7.524;2022-08-25T15:16:53;98114.78;;;28.08;43.57
67818;BME280;54614;47.576;7.524;2022-08-25T15:19:24;98110.69;;;27.89;44.21